This is the latest recevied weather packets stored in our database for station/object SP5IZJ-2. If no packets are shown the sender has not sent any weather packets the latest 1 day(s).
| Time | Temp. | Humidity | Pressure | Rain* | Wind** | Luminosity | Snow |
|---|---|---|---|---|---|---|---|
| 1778094728 | 16.11° C | 61% | 997.8 hPa | 0 mm | - | - | - |
| 1778094328 | 16.11° C | 59% | 997.7 hPa | 0 mm | - | - | - |
| 1778089690 | 22.78° C | 46% | 997.2 hPa | 0 mm | - | - | - |
| 1778087591 | 26.67° C | 40% | 997.1 hPa | 0 mm | - | - | - |
| 1778087171 | 27.22° C | 39% | 997 hPa | 0 mm | - | - | - |
| 1778086751 | 26.67° C | 40% | 997.2 hPa | 0 mm | - | - | - |
| 1778085074 | 25° C | 42% | 996.8 hPa | 0 mm | - | - | - |
| 1778084652 | 26.11° C | 40% | 996.8 hPa | 0 mm | - | - | - |
| 1778083819 | 27.78° C | 38% | 996.7 hPa | 0 mm | - | - | - |
| 1778082553 | 30° C | 36% | 997 hPa | 0 mm | - | - | - |
| 1778076680 | 26.67° C | 41% | 997.1 hPa | 0 mm | - | - | - |
| 1778073317 | 26.67° C | 41% | 997 hPa | 0 mm | - | - | - |
| 1778067439 | 23.89° C | 45% | 997 hPa | 0 mm | - | - | - |
| 1778061561 | 23.33° C | 45% | 997.2 hPa | 0 mm | - | - | - |
| 1778060722 | 23.89° C | 44% | 997.2 hPa | 0 mm | - | - | - |
| 1778058623 | 22.78° C | 47% | 997.2 hPa | 0 mm | - | - | - |
| 1778056946 | 23.33° C | 43% | 997.2 hPa | 0 mm | - | - | - |
| 1778056526 | 23.89° C | 44% | 996.8 hPa | 0 mm | - | - | - |
| 1778056106 | 23.89° C | 44% | 997.2 hPa | 0 mm | - | - | - |
| 1778055686 | 24.44° C | 47% | 997.1 hPa | 0 mm | - | - | - |
| 1778053585 | 24.44° C | 49% | 996.9 hPa | 0 mm | - | - | - |
| 1778053167 | 22.78° C | 51% | 997 hPa | 0 mm | - | - | - |
| 1778047707 | 20.56° C | 58% | 997.5 hPa | 0 mm | - | - | - |
| 1778046868 | 19.44° C | 60% | 997.7 hPa | 0 mm | - | - | - |
| 1778041830 | 12.22° C | 84% | 997.9 hPa | 0 mm | - | - | - |
* Rain latest hour (hover to see other rain measurements)
** Current wind speed in m/s (hover to see current wind gust speed)